createdAt,value
2023-03-05T00:02:01.614Z,100865.89
2023-03-05T00:04:29.911Z,100868.02
2023-03-05T00:06:58.160Z,100870.51
2023-03-05T00:09:27.260Z,100870.44
2023-03-05T00:11:58.297Z,100871.77
2023-03-05T00:14:26.676Z,100874.58
2023-03-05T00:16:55.187Z,100876.52
2023-03-05T00:19:24.775Z,100874.09
2023-03-05T00:21:53.548Z,100871.67
2023-03-05T00:24:28.925Z,100869.44
2023-03-05T00:26:57.875Z,100871.02
2023-03-05T00:29:30.103Z,100867.58
2023-03-05T00:31:59.886Z,100869.45
2023-03-05T00:34:29.875Z,100870.72
2023-03-05T00:36:59.485Z,100871.55
2023-03-05T00:39:28.171Z,100875.80
2023-03-05T00:41:56.953Z,100879.02
2023-03-05T00:44:25.653Z,100880.52
2023-03-05T00:46:54.094Z,100884.05
2023-03-05T00:49:23.011Z,100887.68
2023-03-05T00:51:52.419Z,100890.11
2023-03-05T00:54:21.213Z,100892.23
2023-03-05T00:56:50.605Z,100896.16
2023-03-05T00:59:19.187Z,100894.52
2023-03-05T01:01:48.000Z,100903.22
2023-03-05T01:04:18.207Z,100911.20
2023-03-05T01:06:47.691Z,100914.30
2023-03-05T01:09:17.804Z,100906.69
2023-03-05T01:11:46.187Z,100902.54
2023-03-05T01:14:15.578Z,100904.79
2023-03-05T01:16:44.882Z,100903.90
2023-03-05T01:19:14.518Z,100903.71
2023-03-05T01:21:43.167Z,100909.08
2023-03-05T01:24:26.417Z,100907.19
2023-03-05T01:26:55.178Z,100905.63
2023-03-05T01:29:23.965Z,100909.27
2023-03-05T01:31:52.815Z,100911.90
2023-03-05T01:34:21.742Z,100911.06
2023-03-05T01:36:56.102Z,100912.48
2023-03-05T01:39:24.346Z,100912.48
2023-03-05T01:41:52.818Z,100910.71
2023-03-05T01:44:28.679Z,100909.25
2023-03-05T01:46:57.253Z,100910.77
2023-03-05T01:49:36.290Z,100911.58
2023-03-05T01:52:14.171Z,100912.39
2023-03-05T01:55:20.552Z,100915.13
2023-03-05T01:58:02.453Z,100918.76
2023-03-05T02:00:41.248Z,100923.94
2023-03-05T02:03:10.394Z,100930.86
2023-03-05T02:05:39.470Z,100931.96
2023-03-05T02:08:11.002Z,100940.48
2023-03-05T02:10:43.900Z,100946.38
2023-03-05T02:13:22.822Z,100954.02
2023-03-05T02:15:52.204Z,100956.50
2023-03-05T02:18:22.751Z,100957.90
2023-03-05T02:20:56.886Z,100958.59
2023-03-05T02:23:30.260Z,100962.02
2023-03-05T02:25:58.640Z,100964.26
2023-03-05T02:28:33.275Z,100969.95
2023-03-05T02:31:03.391Z,100972.53
2023-03-05T02:33:31.658Z,100974.44
2023-03-05T02:36:03.017Z,100976.56
2023-03-05T02:38:32.113Z,100974.73
2023-03-05T02:41:00.587Z,100975.49
2023-03-05T02:43:29.167Z,100978.13
2023-03-05T02:45:58.153Z,100979.91
2023-03-05T02:48:26.539Z,100980.30
2023-03-05T02:50:55.533Z,100987.60
2023-03-05T02:53:26.574Z,100987.44
2023-03-05T02:55:54.854Z,100986.59
2023-03-05T02:58:23.224Z,100988.48
2023-03-05T03:00:51.977Z,100986.95
2023-03-05T03:03:20.824Z,100991.44
2023-03-05T03:05:49.687Z,100992.67
2023-03-05T03:08:18.274Z,100993.72
2023-03-05T03:10:56.638Z,100990.30
2023-03-05T03:13:26.298Z,100993.96
2023-03-05T03:16:05.720Z,100990.19
2023-03-05T03:18:34.008Z,100987.64
2023-03-05T03:21:03.099Z,100988.54
2023-03-05T03:23:34.287Z,100989.27
2023-03-05T03:26:02.526Z,100989.80
2023-03-05T03:28:31.104Z,100991.57
2023-03-05T03:30:59.711Z,100989.35
2023-03-05T03:33:28.196Z,100991.12
2023-03-05T03:35:56.594Z,100989.92
2023-03-05T03:38:25.134Z,100992.37
2023-03-05T03:40:55.967Z,100991.70
2023-03-05T03:43:24.960Z,100996.56
2023-03-05T03:45:53.472Z,101002.98
2023-03-05T03:48:22.434Z,101007.83
2023-03-05T03:50:50.685Z,101004.74
2023-03-05T03:53:18.881Z,101005.96
2023-03-05T03:55:47.464Z,101006.49
2023-03-05T03:58:15.741Z,101006.00
2023-03-05T04:00:44.022Z,101012.91
2023-03-05T04:03:13.829Z,101016.73
2023-03-05T04:05:43.846Z,101018.99
2023-03-05T04:08:12.940Z,101016.92
2023-03-05T04:10:41.737Z,101020.38
2023-03-05T04:13:10.821Z,101016.24
2023-03-05T04:15:44.553Z,101021.59
2023-03-05T04:18:12.900Z,101024.71
2023-03-05T04:20:41.493Z,101027.29
2023-03-05T04:23:10.580Z,101033.85
2023-03-05T04:25:39.063Z,101040.41
2023-03-05T04:28:07.642Z,101041.80
2023-03-05T04:34:17.308Z,101047.98
2023-03-05T04:36:45.783Z,101047.80
2023-03-05T04:39:14.981Z,101052.45
2023-03-05T04:41:43.765Z,101054.53
2023-03-05T04:44:14.091Z,101065.23
2023-03-05T04:46:42.514Z,101072.13
2023-03-05T04:49:11.077Z,101072.83
2023-03-05T04:51:40.964Z,101074.88
2023-03-05T04:54:09.575Z,101075.90
2023-03-05T05:00:07.131Z,101079.15
2023-03-05T05:02:35.576Z,101086.91
2023-03-05T05:05:04.193Z,101094.86
2023-03-05T05:07:33.085Z,101099.34
2023-03-05T05:10:05.148Z,101104.00
2023-03-05T05:12:33.832Z,101111.45
2023-03-05T05:15:02.724Z,101116.27
2023-03-05T05:17:33.170Z,101123.16
2023-03-05T05:20:06.755Z,101119.19
2023-03-05T05:22:35.950Z,101121.94
2023-03-05T05:25:05.348Z,101120.90
2023-03-05T05:27:34.650Z,101123.48
2023-03-05T05:30:04.350Z,101131.61
2023-03-05T05:32:32.673Z,101134.55
2023-03-05T05:35:01.163Z,101141.78
2023-03-05T05:37:30.116Z,101147.30
2023-03-05T05:39:59.512Z,101153.86
2023-03-05T05:42:29.732Z,101161.11
2023-03-05T05:44:58.728Z,101160.58
2023-03-05T05:47:28.137Z,101166.80
2023-03-05T05:49:57.236Z,101170.93
2023-03-05T05:52:25.928Z,101176.61
2023-03-05T05:54:54.203Z,101183.86
2023-03-05T05:57:22.567Z,101190.92
2023-03-05T05:59:51.457Z,101196.97
2023-03-05T06:02:19.906Z,101205.27
2023-03-05T06:04:48.723Z,101205.25
2023-03-05T06:07:17.022Z,101211.80
2023-03-05T06:09:45.274Z,101218.02
2023-03-05T06:12:17.331Z,101218.54
2023-03-05T06:15:06.408Z,101220.27
2023-03-05T06:17:34.987Z,101219.59
2023-03-05T06:20:06.980Z,101220.81
2023-03-05T06:22:37.884Z,101223.06
2023-03-05T06:25:09.739Z,101228.41
2023-03-05T06:27:38.737Z,101231.65
2023-03-05T06:30:08.345Z,101234.35
2023-03-05T06:32:39.138Z,101237.41
2023-03-05T06:35:08.203Z,101243.09
2023-03-05T06:37:37.675Z,101246.54
2023-03-05T06:40:07.886Z,101243.43
2023-03-05T06:42:36.478Z,101246.36
2023-03-05T06:45:05.755Z,101247.17
2023-03-05T06:47:35.277Z,101250.41
2023-03-05T06:50:05.954Z,101256.94
2023-03-05T06:52:34.603Z,101257.58
2023-03-05T06:55:05.437Z,101258.94
2023-03-05T06:57:34.849Z,101260.98
2023-03-05T07:00:09.564Z,101261.98
2023-03-05T07:02:38.627Z,101264.88
2023-03-05T07:05:07.743Z,101267.98
2023-03-05T07:07:41.360Z,101266.44
2023-03-05T07:10:11.579Z,101261.39
2023-03-05T07:12:44.269Z,101263.98
2023-03-05T07:15:12.945Z,101263.84
2023-03-05T07:17:41.527Z,101262.83
2023-03-05T07:20:10.739Z,101265.24
2023-03-05T07:22:39.203Z,101267.12
2023-03-05T07:25:08.193Z,101262.77
2023-03-05T07:27:38.210Z,101257.41
2023-03-05T07:30:07.611Z,101257.09
2023-03-05T07:32:36.377Z,101251.42
2023-03-05T07:35:05.492Z,101254.75
2023-03-05T07:37:36.653Z,101251.80
2023-03-05T07:40:06.247Z,101250.24
2023-03-05T07:42:39.606Z,101250.23
2023-03-05T07:45:18.364Z,101252.98
2023-03-05T07:47:46.623Z,101251.28
2023-03-05T07:50:14.912Z,101256.65
2023-03-05T07:52:43.699Z,101252.34
2023-03-05T07:55:12.494Z,101253.53
2023-03-05T07:57:41.075Z,101250.38
2023-03-05T08:00:10.066Z,101245.84
2023-03-05T08:02:41.509Z,101245.42
2023-03-05T08:05:10.555Z,101236.23
2023-03-05T08:07:54.453Z,101232.20
2023-03-05T08:10:23.236Z,101229.10
2023-03-05T08:12:51.720Z,101228.61
2023-03-05T08:15:20.414Z,101228.09
2023-03-05T08:17:49.119Z,101227.72
2023-03-05T08:20:19.412Z,101226.63
2023-03-05T08:22:48.097Z,101220.86
2023-03-05T08:25:18.627Z,101221.46
2023-03-05T08:27:49.973Z,101223.80
2023-03-05T08:30:22.340Z,101222.87
2023-03-05T08:32:51.759Z,101219.36
2023-03-05T08:35:20.759Z,101221.91
2023-03-05T08:37:54.551Z,101222.23
2023-03-05T08:40:24.074Z,101221.95
2023-03-05T08:42:52.532Z,101218.55
2023-03-05T08:45:24.090Z,101217.58
2023-03-05T08:47:52.671Z,101221.48
2023-03-05T08:50:26.575Z,101221.19
2023-03-05T08:52:57.220Z,101223.13
2023-03-05T08:55:25.800Z,101223.33
2023-03-05T08:57:54.274Z,101219.30
2023-03-05T09:00:23.304Z,101223.30
2023-03-05T09:02:52.821Z,101219.06
2023-03-05T09:05:21.449Z,101220.10
2023-03-05T09:07:50.647Z,101210.19
2023-03-05T09:10:21.585Z,101211.34
2023-03-05T09:12:50.066Z,101212.95
2023-03-05T09:15:19.998Z,101215.54
2023-03-05T09:17:51.637Z,101214.83
2023-03-05T09:20:20.225Z,101207.95
2023-03-05T09:22:51.682Z,101205.19
2023-03-05T09:25:20.351Z,101197.61
2023-03-05T09:27:48.833Z,101196.77
2023-03-05T09:30:17.925Z,101190.23
2023-03-05T09:32:46.678Z,101190.27
2023-03-05T09:35:16.328Z,101193.88
2023-03-05T09:37:45.213Z,101194.16
2023-03-05T09:40:16.071Z,101194.66
2023-03-05T09:43:12.589Z,101194.08
2023-03-05T09:46:06.604Z,101189.47
2023-03-05T09:48:56.654Z,101185.21
2023-03-05T09:51:26.665Z,101189.27
2023-03-05T09:54:03.860Z,101184.72
2023-03-05T09:56:37.905Z,101183.69
2023-03-05T09:59:14.760Z,101182.20
2023-03-05T10:01:43.117Z,101175.75
2023-03-05T10:04:18.505Z,101172.52
2023-03-05T10:06:46.837Z,101166.51
2023-03-05T10:09:22.134Z,101163.16
2023-03-05T10:12:01.016Z,101156.01
2023-03-05T10:14:39.215Z,101156.14
2023-03-05T10:17:31.390Z,101152.52
2023-03-05T10:20:08.121Z,101150.48
2023-03-05T10:23:09.778Z,101143.42
2023-03-05T10:26:07.341Z,101138.95
2023-03-05T10:28:42.398Z,101135.78
2023-03-05T10:31:25.263Z,101134.73
2023-03-05T10:34:01.157Z,101126.67
2023-03-05T10:36:51.953Z,101124.33
2023-03-05T10:39:41.951Z,101117.50
2023-03-05T10:42:13.489Z,101110.55
2023-03-05T10:44:44.121Z,101107.89
2023-03-05T10:47:25.092Z,101108.84
2023-03-05T10:49:55.017Z,101107.36
2023-03-05T10:52:35.987Z,101103.67
2023-03-05T10:55:20.455Z,101099.62
2023-03-05T10:57:49.836Z,101098.84
2023-03-05T11:00:19.935Z,101093.02
2023-03-05T11:02:58.093Z,101092.45
2023-03-05T11:05:44.407Z,101085.63
2023-03-05T11:08:36.112Z,101078.98
2023-03-05T11:11:13.061Z,101077.38
2023-03-05T11:13:59.871Z,101077.30
2023-03-05T11:16:30.223Z,101077.38
2023-03-05T11:19:18.854Z,101076.27
2023-03-05T11:22:04.226Z,101074.67
2023-03-05T11:24:34.041Z,101067.30
2023-03-05T11:27:02.311Z,101067.22
2023-03-05T11:33:15.775Z,101061.58
2023-03-05T11:35:44.908Z,101051.87
2023-03-05T11:38:21.335Z,101048.70
2023-03-05T11:40:52.092Z,101047.40
2023-03-05T11:43:22.600Z,101045.98
2023-03-05T11:46:02.907Z,101042.48
2023-03-05T11:48:51.195Z,101046.77
2023-03-05T11:51:39.310Z,101045.87
2023-03-05T11:54:09.486Z,101046.23
2023-03-05T11:56:39.986Z,101043.59
2023-03-05T11:59:28.851Z,101043.34
2023-03-05T12:02:00.587Z,101041.36
2023-03-05T12:04:29.805Z,101038.73
2023-03-05T12:06:59.139Z,101036.52
2023-03-05T12:09:41.170Z,101032.05
2023-03-05T12:12:21.664Z,101027.09
2023-03-05T12:15:02.035Z,101021.14
2023-03-05T12:18:19.968Z,101021.61
2023-03-05T12:21:04.321Z,101011.66
2023-03-05T12:23:59.128Z,101014.97
2023-03-05T12:27:04.532Z,101011.50
2023-03-05T12:29:33.175Z,101008.88
2023-03-05T12:32:31.642Z,101010.73
2023-03-05T12:35:19.609Z,101011.17
2023-03-05T12:37:48.252Z,101008.02
2023-03-05T12:40:21.451Z,101006.64
2023-03-05T12:42:52.414Z,101007.87
2023-03-05T12:45:34.790Z,101009.23
2023-03-05T12:48:03.884Z,101007.41
2023-03-05T12:50:52.914Z,101009.90
2023-03-05T12:53:22.451Z,101006.45
2023-03-05T12:55:59.708Z,101000.41
2023-03-05T12:58:37.337Z,100996.44
2023-03-05T13:04:31.020Z,100992.99
2023-03-05T13:07:04.645Z,100992.39
2023-03-05T13:09:36.620Z,100995.71
2023-03-05T13:12:06.758Z,100991.71
2023-03-05T13:14:43.084Z,100991.54
2023-03-05T13:17:30.900Z,100990.65
2023-03-05T13:20:01.638Z,100985.56
2023-03-05T13:22:30.211Z,100987.13
2023-03-05T13:25:06.077Z,100985.25
2023-03-05T13:27:36.189Z,100982.82
2023-03-05T13:30:05.081Z,100978.35
2023-03-05T13:32:35.130Z,100978.38
2023-03-05T13:35:03.570Z,100974.59
2023-03-05T13:37:37.067Z,100977.05
2023-03-05T13:40:20.014Z,100978.11
2023-03-05T13:42:48.673Z,100972.23
2023-03-05T13:45:31.335Z,100975.89
2023-03-05T13:48:03.239Z,100969.41
2023-03-05T13:50:39.814Z,100972.48
2023-03-05T13:53:19.672Z,100971.92
2023-03-05T13:55:53.568Z,100971.58
2023-03-05T13:58:41.631Z,100966.61
2023-03-05T14:01:28.634Z,100963.98
2023-03-05T14:04:07.138Z,100963.12
2023-03-05T14:06:40.942Z,100961.19
2023-03-05T14:09:19.970Z,100957.90
2023-03-05T14:11:57.466Z,100958.89
2023-03-05T14:14:26.153Z,100960.09
2023-03-05T14:17:17.158Z,100957.10
2023-03-05T14:19:45.560Z,100954.13
2023-03-05T14:22:33.784Z,100959.64
2023-03-05T14:25:03.860Z,100961.69
2023-03-05T14:27:35.160Z,100960.61
2023-03-05T14:30:04.664Z,100962.44
2023-03-05T14:32:36.766Z,100961.66
2023-03-05T14:35:06.152Z,100955.83
2023-03-05T14:37:42.280Z,100953.50
2023-03-05T14:40:13.725Z,100952.58
2023-03-05T14:42:59.455Z,100955.83
2023-03-05T14:45:33.411Z,100957.46
2023-03-05T14:48:03.030Z,100958.50
2023-03-05T14:50:42.633Z,100956.25
2023-03-05T14:53:48.492Z,100961.66
2023-03-05T14:56:24.020Z,100958.72
2023-03-05T14:58:53.200Z,100957.88
2023-03-05T15:01:21.473Z,100960.02
2023-03-05T15:03:50.648Z,100966.48
2023-03-05T15:06:26.628Z,100968.11
2023-03-05T15:08:55.181Z,100967.81
2023-03-05T15:11:23.771Z,100968.73
2023-03-05T15:13:53.578Z,100964.28
2023-03-05T15:16:21.796Z,100965.00
2023-03-05T15:18:50.333Z,100963.98
2023-03-05T15:21:19.425Z,100964.27
2023-03-05T15:23:48.115Z,100965.36
2023-03-05T15:26:16.799Z,100965.79
2023-03-05T15:28:45.379Z,100966.55
2023-03-05T15:31:13.877Z,100966.11
2023-03-05T15:33:42.961Z,100965.52
2023-03-05T15:36:12.356Z,100965.41
2023-03-05T15:38:41.810Z,100964.65
2023-03-05T15:41:10.050Z,100962.48
2023-03-05T15:43:39.231Z,100961.54
2023-03-05T15:46:07.745Z,100960.92
2023-03-05T15:48:39.265Z,100964.49
2023-03-05T15:51:07.775Z,100961.45
2023-03-05T15:53:36.031Z,100962.92
2023-03-05T15:56:04.809Z,100961.80
2023-03-05T15:58:33.093Z,100961.53
2023-03-05T16:01:01.574Z,100961.81
2023-03-05T16:03:30.183Z,100964.65
2023-03-05T16:05:58.541Z,100966.95
2023-03-05T16:08:28.238Z,100968.56
2023-03-05T16:10:56.826Z,100974.34
2023-03-05T16:13:28.249Z,100976.65
2023-03-05T16:15:57.485Z,100977.58
2023-03-05T16:18:25.888Z,100976.08
2023-03-05T16:20:55.561Z,100972.66
2023-03-05T16:23:23.979Z,100980.14
2023-03-05T16:25:55.493Z,100978.27
2023-03-05T16:28:23.767Z,100979.52
2023-03-05T16:30:56.149Z,100978.36
2023-03-05T16:33:25.132Z,100977.88
2023-03-05T16:36:20.946Z,100984.48
2023-03-05T16:38:57.701Z,100986.60
2023-03-05T16:41:26.927Z,100986.64
2023-03-05T16:43:56.648Z,100989.80
2023-03-05T16:46:26.189Z,100997.60
2023-03-05T16:48:55.755Z,101000.09
2023-03-05T16:51:30.988Z,101002.89
2023-03-05T16:53:59.568Z,101005.70
2023-03-05T16:56:27.959Z,101005.05
2023-03-05T16:58:56.691Z,101004.20
2023-03-05T17:01:25.509Z,101004.77
2023-03-05T17:03:57.467Z,101006.20
2023-03-05T17:06:28.017Z,101008.99
2023-03-05T17:08:58.845Z,101008.34
2023-03-05T17:11:27.741Z,101010.79
2023-03-05T17:13:58.161Z,101014.45
2023-03-05T17:16:27.910Z,101018.80
2023-03-05T17:19:01.166Z,101024.52
2023-03-05T17:21:29.958Z,101024.69
2023-03-05T17:23:58.553Z,101024.67
2023-03-05T17:26:28.135Z,101026.41
2023-03-05T17:28:56.532Z,101025.91
2023-03-05T17:31:25.043Z,101024.05
2023-03-05T17:33:56.661Z,101022.70
2023-03-05T17:36:25.546Z,101021.16
2023-03-05T17:38:53.930Z,101016.70
2023-03-05T17:41:22.512Z,101014.49
2023-03-05T17:43:57.069Z,101014.92
2023-03-05T17:46:26.130Z,101016.36
2023-03-05T17:48:54.401Z,101020.89
2023-03-05T17:51:22.677Z,101018.84
2023-03-05T17:53:51.155Z,101018.17
2023-03-05T17:56:23.113Z,101017.52
2023-03-05T17:58:52.423Z,101015.13
2023-03-05T18:01:31.446Z,101013.27
2023-03-05T18:03:59.932Z,101010.36
2023-03-05T18:06:29.964Z,101006.05
2023-03-05T18:08:59.146Z,101003.97
2023-03-05T18:11:29.160Z,101003.13
2023-03-05T18:13:59.277Z,100997.09
2023-03-05T18:16:27.800Z,100992.08
2023-03-05T18:18:56.851Z,100989.67
2023-03-05T18:21:28.321Z,100992.63
2023-03-05T18:23:56.882Z,100994.34
2023-03-05T18:26:25.571Z,100996.23
2023-03-05T18:28:53.926Z,100998.67
2023-03-05T18:31:22.321Z,100996.61
2023-03-05T18:33:51.321Z,100995.06
2023-03-05T18:36:20.412Z,100997.17
2023-03-05T18:38:48.684Z,100991.15
2023-03-05T18:41:21.836Z,100992.39
2023-03-05T18:43:50.969Z,100990.19
2023-03-05T18:46:20.003Z,100989.69
2023-03-05T18:48:49.569Z,100992.50
2023-03-05T18:51:21.937Z,100991.85
2023-03-05T18:53:52.165Z,100996.89
2023-03-05T18:56:22.085Z,100997.78
2023-03-05T18:58:51.210Z,101000.39
2023-03-05T19:01:20.110Z,100998.49
2023-03-05T19:03:49.363Z,100997.65
2023-03-05T19:06:18.051Z,100997.84
2023-03-05T19:09:08.524Z,100994.27
2023-03-05T19:11:47.592Z,100996.20
2023-03-05T19:14:16.178Z,100998.30
2023-03-05T19:16:45.249Z,101004.38
2023-03-05T19:19:20.468Z,100998.68
2023-03-05T19:21:55.426Z,100996.45
2023-03-05T19:24:25.153Z,100993.00
2023-03-05T19:26:56.176Z,100993.69
2023-03-05T19:29:25.377Z,100990.77
2023-03-05T19:31:53.954Z,100994.05
2023-03-05T19:34:22.332Z,100996.31
2023-03-05T19:36:51.014Z,100994.77
2023-03-05T19:39:24.921Z,100997.91
2023-03-05T19:41:53.408Z,100993.96
2023-03-05T19:44:21.787Z,100994.48
2023-03-05T19:46:50.462Z,100993.64
2023-03-05T19:49:19.875Z,100994.17
2023-03-05T19:51:49.160Z,100989.52
2023-03-05T19:54:19.240Z,100987.13
2023-03-05T19:56:48.069Z,100988.35
2023-03-05T19:59:18.194Z,100989.23
2023-03-05T20:01:46.901Z,100991.14
2023-03-05T20:04:20.783Z,100984.77
2023-03-05T20:06:49.490Z,100988.25
2023-03-05T20:09:20.719Z,100986.88
2023-03-05T20:11:49.199Z,100984.99
2023-03-05T20:14:17.780Z,100985.70
2023-03-05T20:16:46.666Z,100989.16
2023-03-05T20:19:17.102Z,100982.44
2023-03-05T20:21:45.477Z,100979.68
2023-03-05T20:24:16.015Z,100979.52
2023-03-05T20:26:45.638Z,100982.98
2023-03-05T20:29:17.342Z,100984.73
2023-03-05T20:31:46.530Z,100989.74
2023-03-05T20:34:16.888Z,100988.37
2023-03-05T20:36:46.905Z,100988.38
2023-03-05T20:39:15.804Z,100988.55
2023-03-05T20:41:47.243Z,100989.26
2023-03-05T20:44:17.158Z,100987.71
2023-03-05T20:47:22.232Z,100988.23
2023-03-05T20:50:07.827Z,100990.48
2023-03-05T20:52:37.386Z,100983.58
2023-03-05T20:55:06.918Z,100980.63
2023-03-05T20:57:35.203Z,100983.23
2023-03-05T21:00:04.368Z,100981.33
2023-03-05T21:02:33.268Z,100974.77
2023-03-05T21:05:01.941Z,100976.00
2023-03-05T21:07:31.136Z,100974.96
2023-03-05T21:09:59.522Z,100970.81
2023-03-05T21:12:29.432Z,100963.23
2023-03-05T21:14:59.550Z,100963.39
2023-03-05T21:17:30.898Z,100957.69
2023-03-05T21:19:59.283Z,100957.88
2023-03-05T21:22:27.776Z,100956.67
2023-03-05T21:25:12.738Z,100951.85
2023-03-05T21:27:42.480Z,100958.41
2023-03-05T21:30:18.810Z,100958.94
2023-03-05T21:32:48.501Z,100956.35
2023-03-05T21:35:18.863Z,100961.20
2023-03-05T21:37:47.718Z,100960.34
2023-03-05T21:40:17.820Z,100957.75
2023-03-05T21:42:46.832Z,100958.10
2023-03-05T21:45:17.994Z,100957.92
2023-03-05T21:47:46.555Z,100957.08
2023-03-05T21:50:15.348Z,100950.70
2023-03-05T21:52:50.068Z,100952.23
2023-03-05T21:55:20.399Z,100950.54
2023-03-05T21:57:48.665Z,100946.39
2023-03-05T22:00:22.880Z,100943.61
2023-03-05T22:02:51.788Z,100942.08
2023-03-05T22:05:20.349Z,100946.73
2023-03-05T22:07:49.545Z,100945.17
2023-03-05T22:10:22.705Z,100943.96
2023-03-05T22:13:10.998Z,100951.56
2023-03-05T22:15:45.807Z,100949.14
2023-03-05T22:18:29.149Z,100950.17
2023-03-05T22:20:57.919Z,100948.10
2023-03-05T22:23:29.372Z,100956.21
2023-03-05T22:25:58.674Z,100958.27
2023-03-05T22:28:27.476Z,100954.83
2023-03-05T22:30:57.292Z,100946.02
2023-03-05T22:33:26.215Z,100947.23
2023-03-05T22:35:55.092Z,100954.66
2023-03-05T22:38:24.353Z,100959.83
2023-03-05T22:40:53.303Z,100958.46
2023-03-05T22:43:22.959Z,100954.14
2023-03-05T22:45:51.356Z,100958.98
2023-03-05T22:48:19.809Z,100963.64
2023-03-05T22:50:54.872Z,100960.36
2023-03-05T22:53:23.118Z,100952.94
2023-03-05T22:55:51.395Z,100948.98
2023-03-05T22:58:21.966Z,100950.88
2023-03-05T23:00:50.300Z,100949.68
2023-03-05T23:03:18.580Z,100948.83
2023-03-05T23:05:47.676Z,100950.02
2023-03-05T23:08:16.677Z,100947.78
2023-03-05T23:10:46.075Z,100942.98
2023-03-05T23:13:14.462Z,100939.02
2023-03-05T23:15:42.985Z,100939.19
2023-03-05T23:18:15.313Z,100934.56
2023-03-05T23:20:44.006Z,100931.63
2023-03-05T23:23:12.776Z,100927.32
2023-03-05T23:25:42.102Z,100927.70
2023-03-05T23:28:10.370Z,100923.74
2023-03-05T23:30:39.765Z,100922.38
2023-03-05T23:33:14.746Z,100918.42
2023-03-05T23:35:49.873Z,100914.47
2023-03-05T23:38:20.250Z,100916.05
2023-03-05T23:40:50.282Z,100919.69
2023-03-05T23:43:19.162Z,100912.63
2023-03-05T23:45:48.697Z,100914.20
2023-03-05T23:48:17.186Z,100912.30
2023-03-05T23:50:47.773Z,100911.12
2023-03-05T23:53:20.770Z,100901.81
2023-03-05T23:55:49.472Z,100901.98
2023-03-05T23:58:23.976Z,100895.97
